createdAt,value
2017-03-05T00:07:53.981Z,13
2017-03-05T00:17:54.002Z,13
2017-03-05T00:27:53.995Z,14
2017-03-05T00:37:54.096Z,14
2017-03-05T00:47:54.111Z,14
2017-03-05T00:57:54.040Z,14
2017-03-05T01:07:54.053Z,16
2017-03-05T01:17:53.989Z,8
2017-03-05T01:27:53.991Z,5
2017-03-05T01:37:54.067Z,6
2017-03-05T01:47:53.957Z,5
2017-03-05T01:57:54.081Z,7
2017-03-05T02:07:54.171Z,5
2017-03-05T02:17:54.035Z,5
2017-03-05T02:27:54.158Z,6
2017-03-05T02:37:53.962Z,9
2017-03-05T02:47:53.972Z,10
2017-03-05T02:57:54.040Z,9
2017-03-05T03:07:53.939Z,10
2017-03-05T03:17:54.005Z,9
2017-03-05T03:27:53.965Z,14
2017-03-05T03:37:53.912Z,22
2017-03-05T03:47:53.971Z,17
2017-03-05T03:57:53.909Z,19
2017-03-05T04:07:54.050Z,18
2017-03-05T04:17:53.946Z,16
2017-03-05T04:27:53.907Z,18
2017-03-05T04:37:54.036Z,17
2017-03-05T04:47:53.947Z,16
2017-03-05T04:57:53.985Z,18
2017-03-05T05:07:54.049Z,15
2017-03-05T05:17:53.950Z,16
2017-03-05T05:27:54.019Z,16
2017-03-05T05:37:53.911Z,16
2017-03-05T05:47:53.917Z,12
2017-03-05T05:57:54.367Z,12
2017-03-05T06:07:53.968Z,14
2017-03-05T06:17:53.951Z,14
2017-03-05T06:27:53.897Z,13
2017-03-05T06:37:53.927Z,12
2017-03-05T06:47:53.981Z,11
2017-03-05T06:57:53.910Z,17
2017-03-05T07:07:54.047Z,12
2017-03-05T07:17:54.007Z,11
2017-03-05T07:27:53.928Z,12
2017-03-05T07:37:53.983Z,15
2017-03-05T07:47:54.010Z,11
2017-03-05T07:57:53.965Z,11
2017-03-05T08:07:53.956Z,10
2017-03-05T08:17:53.902Z,12
2017-03-05T08:27:54.025Z,14
2017-03-05T08:37:53.927Z,11
2017-03-05T08:47:53.899Z,15
2017-03-05T08:57:53.997Z,11
2017-03-05T09:07:53.926Z,10
2017-03-05T09:17:53.892Z,10
2017-03-05T09:27:53.937Z,12
2017-03-05T09:37:53.847Z,7
2017-03-05T09:47:53.921Z,8
2017-03-05T09:57:53.983Z,12
2017-03-05T10:07:54.584Z,9
2017-03-05T10:17:53.967Z,7
2017-03-05T10:27:53.906Z,8
2017-03-05T10:37:54.981Z,6
2017-03-05T10:47:54.659Z,10
2017-03-05T10:57:54.018Z,4
2017-03-05T11:07:54.021Z,9
2017-03-05T11:17:53.986Z,4
2017-03-05T11:27:54.105Z,8
2017-03-05T11:37:54.037Z,4
2017-03-05T11:47:53.982Z,4
2017-03-05T11:57:54.051Z,4
2017-03-05T12:07:53.969Z,3
2017-03-05T12:17:54.008Z,4
2017-03-05T12:27:53.979Z,4
2017-03-05T12:37:53.921Z,5
2017-03-05T12:47:53.937Z,6
2017-03-05T12:57:53.994Z,4
2017-03-05T13:07:54.065Z,3
2017-03-05T13:17:53.932Z,4
2017-03-05T13:27:53.936Z,2
2017-03-05T13:37:54.041Z,3
2017-03-05T13:47:53.919Z,2
2017-03-05T13:57:53.877Z,2
2017-03-05T14:07:53.905Z,2
2017-03-05T14:17:53.905Z,5
2017-03-05T14:27:53.978Z,2
2017-03-05T14:37:53.971Z,2
2017-03-05T14:47:54.421Z,4
2017-03-05T14:57:54.012Z,3
2017-03-05T15:07:53.950Z,4
2017-03-05T15:17:53.896Z,2
2017-03-05T15:27:53.929Z,2
2017-03-05T15:37:54.153Z,5
2017-03-05T15:47:53.947Z,4
2017-03-05T15:57:53.946Z,2
2017-03-05T16:07:53.918Z,2
2017-03-05T16:17:53.957Z,3
2017-03-05T16:27:53.922Z,1
2017-03-05T16:37:53.962Z,2
2017-03-05T16:47:53.953Z,2
2017-03-05T16:57:53.904Z,2
2017-03-05T17:07:53.914Z,3
2017-03-05T17:17:54.365Z,1
2017-03-05T17:27:53.902Z,2
2017-03-05T17:37:53.879Z,4
2017-03-05T17:47:54.587Z,3
2017-03-05T17:57:54.039Z,2
2017-03-05T18:07:55.203Z,2
2017-03-05T18:17:53.885Z,5
2017-03-05T18:27:53.985Z,4
2017-03-05T18:37:53.897Z,2
2017-03-05T18:47:56.292Z,4
2017-03-05T18:58:07.759Z,3
2017-03-05T19:07:53.954Z,3
2017-03-05T19:17:59.658Z,3
2017-03-05T19:27:53.896Z,3
2017-03-05T19:37:54.069Z,3
2017-03-05T19:47:54.049Z,6
2017-03-05T19:57:53.992Z,3
2017-03-05T20:07:53.986Z,2
2017-03-05T20:17:53.922Z,2
2017-03-05T20:27:53.903Z,4
2017-03-05T20:37:54.066Z,2
2017-03-05T20:47:54.447Z,3
2017-03-05T20:57:54.073Z,2
2017-03-05T21:07:53.923Z,3
2017-03-05T21:17:54.009Z,2
2017-03-05T21:27:54.428Z,3
2017-03-05T21:37:54.058Z,2
2017-03-05T21:47:53.901Z,2
2017-03-05T21:57:53.936Z,2
2017-03-05T22:07:53.907Z,3
2017-03-05T22:17:53.883Z,5
2017-03-05T22:27:53.971Z,4
2017-03-05T22:37:53.871Z,5
2017-03-05T22:47:54.003Z,5
2017-03-05T22:57:55.746Z,5
2017-03-05T23:07:53.956Z,6
2017-03-05T23:17:53.947Z,6
2017-03-05T23:27:54.179Z,7
2017-03-05T23:37:53.993Z,7
2017-03-05T23:47:53.920Z,8
2017-03-05T23:57:54.005Z,8
